Time;durP1;ratioP1;P1;durP2;ratioP2;P2;SDS_P1;SDS_P2;PMS_P1;PMS_P2;Temp;Humidity;BMP_temperature;BMP_pressure;BME280_temperature;BME280_humidity;BME280_pressure;Samples;Min_cycle;Max_cycle;Signal;HPM_P1;HPM_P2
2022/04/11 00:01:35;;;;;;;;;;;3.10;99.90;;;;;;2603219;54;20779;31
2022/04/11 00:04:11;;;;;;;;;;;3.10;99.90;;;;;;2615623;46;19946;31
2022/04/11 00:06:46;;;;;;;;;;;3.10;99.90;;;;;;2621642;46;19961;31
2022/04/11 00:09:20;;;;;;;;;;;3.00;99.90;;;;;;2603071;54;19934;31
2022/04/11 00:11:55;;;;;;;;;;;3.00;99.90;;;;;;2603119;54;20009;31
2022/04/11 00:14:33;;;;;;;;;;;3.00;99.90;;;;;;2603047;54;19934;31
2022/04/11 00:17:11;;;;;;;;;;;3.00;99.90;;;;;;2603209;54;20819;31
2022/04/11 00:19:49;;;;;;;;;;;2.90;99.90;;;;;;2603242;54;20756;31
2022/04/11 00:22:26;;;;;;;;;;;2.90;99.90;;;;;;2621670;46;19985;31
2022/04/11 00:25:00;;;;;;;;;;;2.90;99.90;;;;;;2701667;39;20397;31
2022/04/11 00:27:35;;;;;;;;;;;2.80;99.90;;;;;;2621175;46;20735;31
2022/04/11 00:30:10;;;;;;;;;;;2.80;99.90;;;;;;2621762;46;20790;31
2022/04/11 00:32:47;;;;;;;;;;;2.90;99.90;;;;;;2602815;54;19942;31
2022/04/11 00:35:22;;;;;;;;;;;2.80;99.90;;;;;;2621607;46;19998;31
2022/04/11 00:37:57;;;;;;;;;;;2.80;99.90;;;;;;2621736;46;21414;31
2022/04/11 00:40:32;;;;;;;;;;;2.80;99.90;;;;;;2602995;54;19946;31
2022/04/11 00:43:08;;;;;;;;;;;2.80;99.90;;;;;;2602768;54;20686;31
2022/04/11 00:45:44;;;;;;;;;;;2.80;99.90;;;;;;2621481;46;19934;31
2022/04/11 00:48:22;;;;;;;;;;;2.70;99.90;;;;;;2603127;54;20783;31
2022/04/11 00:50:57;;;;;;;;;;;2.70;99.90;;;;;;2602280;54;19938;31
2022/04/11 00:53:35;;;;;;;;;;;2.70;99.90;;;;;;2602257;54;19973;31
2022/04/11 00:56:12;;;;;;;;;;;2.60;99.90;;;;;;2602153;54;19934;31
2022/04/11 00:58:45;;;;;;;;;;;2.60;99.90;;;;;;2603006;54;22260;31
2022/04/11 01:01:22;;;;;;;;;;;2.60;99.90;;;;;;2621693;46;20635;31
2022/04/11 01:03:59;;;;;;;;;;;2.60;99.90;;;;;;2602963;54;20728;31
2022/04/11 01:06:37;;;;;;;;;;;2.60;99.90;;;;;;2602724;54;20012;31
2022/04/11 01:09:15;;;;;;;;;;;2.50;99.90;;;;;;2602740;54;19934;31
2022/04/11 01:11:50;;;;;;;;;;;2.50;99.90;;;;;;2602872;54;20058;31
2022/04/11 01:14:25;;;;;;;;;;;2.50;99.90;;;;;;2602932;54;20756;31
2022/04/11 01:17:04;;;;;;;;;;;2.40;99.90;;;;;;2621294;46;19942;31
2022/04/11 01:19:38;;;;;;;;;;;2.40;99.90;;;;;;2602730;54;19942;31
2022/04/11 01:22:17;;;;;;;;;;;2.40;99.90;;;;;;2621166;46;19946;31
2022/04/11 01:24:50;;;;;;;;;;;2.40;99.90;;;;;;2719723;39;22211;31
2022/04/11 01:27:25;;;;;;;;;;;2.30;99.90;;;;;;2602716;54;19938;31
2022/04/11 01:30:00;;;;;;;;;;;2.40;99.90;;;;;;2602917;54;20478;31
2022/04/11 01:32:36;;;;;;;;;;;2.30;99.90;;;;;;2602807;54;19942;31
2022/04/11 01:35:20;;;;;;;;;;;2.30;99.90;;;;;;2602608;54;20768;31
2022/04/11 01:37:58;;;;;;;;;;;2.30;99.90;;;;;;2602654;54;20025;31
2022/04/11 01:40:33;;;;;;;;;;;2.20;99.90;;;;;;2602681;54;20765;31
2022/04/11 01:43:08;;;;;;;;;;;2.20;99.90;;;;;;2602898;54;20689;31
2022/04/11 01:45:42;;;;;;;;;;;2.20;99.90;;;;;;2602814;54;20745;31
2022/04/11 01:48:20;;;;;;;;;;;2.20;99.90;;;;;;2621476;47;19961;31
2022/04/11 01:50:55;;;;;;;;;;;2.10;99.90;;;;;;2602838;54;19938;31
2022/04/11 01:53:35;;;;;;;;;;;2.10;99.90;;;;;;2621153;47;20768;31
2022/04/11 01:56:10;;;;;;;;;;;2.10;99.90;;;;;;2621494;47;19946;31
2022/04/11 01:58:47;;;;;;;;;;;2.10;99.90;;;;;;2602853;54;20787;31
2022/04/11 02:01:22;;;;;;;;;;;2.00;99.90;;;;;;2602017;54;20013;31
2022/04/11 02:03:56;;;;;;;;;;;2.00;99.90;;;;;;2618236;47;20785;31
2022/04/11 02:06:31;;;;;;;;;;;2.00;99.90;;;;;;2602606;54;20735;31
2022/04/11 02:09:09;;;;;;;;;;;2.00;99.90;;;;;;2621260;47;19934;31
2022/04/11 02:14:17;;;;;;;;;;;2.00;99.90;;;;;;2620895;47;19938;31
2022/04/11 02:16:52;;;;;;;;;;;2.00;99.90;;;;;;2602091;54;20822;31
2022/04/11 02:19:26;;;;;;;;;;;1.90;99.90;;;;;;2619590;46;21319;31
2022/04/11 02:22:02;;;;;;;;;;;1.90;99.90;;;;;;2603409;54;20729;31
2022/04/11 02:24:41;;;;;;;;;;;1.80;99.90;;;;;;2603423;54;19987;31
2022/04/11 02:27:17;;;;;;;;;;;1.90;99.90;;;;;;2621801;46;19942;31
2022/04/11 02:29:55;;;;;;;;;;;1.80;99.90;;;;;;2603101;54;19942;31
2022/04/11 02:32:29;;;;;;;;;;;1.90;99.90;;;;;;2603434;54;20681;31
2022/04/11 02:35:06;;;;;;;;;;;1.90;99.90;;;;;;2603388;54;20784;31
2022/04/11 02:37:40;;;;;;;;;;;1.80;99.90;;;;;;2609537;46;19934;31
2022/04/11 02:40:19;;;;;;;;;;;1.80;99.90;;;;;;2603529;54;20812;31
2022/04/11 02:43:10;;;;;;;;;;;1.80;99.90;;;;;;2603415;54;20612;31
2022/04/11 02:45:52;;;;;;;;;;;1.80;99.90;;;;;;2701924;39;21253;31
2022/04/11 02:48:33;;;;;;;;;;;1.80;99.90;;;;;;2621989;46;19942;31
2022/04/11 02:51:15;;;;;;;;;;;1.80;99.90;;;;;;2603372;54;19986;31
2022/04/11 02:53:56;;;;;;;;;;;1.80;99.90;;;;;;2622029;46;19935;31
2022/04/11 02:56:33;;;;;;;;;;;1.90;99.90;;;;;;2603115;54;20496;31
2022/04/11 02:59:11;;;;;;;;;;;1.90;99.90;;;;;;2603258;54;20693;31
2022/04/11 03:01:50;;;;;;;;;;;1.90;99.90;;;;;;2602488;54;20012;31
2022/04/11 03:04:29;;;;;;;;;;;1.90;99.90;;;;;;2603341;54;20728;31
2022/04/11 03:07:15;;;;;;;;;;;1.90;99.90;;;;;;2603446;54;19941;31
2022/04/11 03:09:50;;;;;;;;;;;1.90;99.90;;;;;;2603483;54;20738;31
2022/04/11 03:12:30;;;;;;;;;;;1.90;99.90;;;;;;2621972;46;19939;31
2022/04/11 03:15:06;;;;;;;;;;;2.00;99.90;;;;;;2603184;54;20717;31
2022/04/11 03:17:42;;;;;;;;;;;2.00;99.90;;;;;;2701981;39;21269;31
2022/04/11 03:20:19;;;;;;;;;;;2.10;99.90;;;;;;2603440;54;20671;31
2022/04/11 03:22:57;;;;;;;;;;;2.10;99.90;;;;;;2622123;46;20757;31
2022/04/11 03:25:36;;;;;;;;;;;2.10;99.90;;;;;;2603396;54;19931;31
2022/04/11 03:28:16;;;;;;;;;;;2.20;99.90;;;;;;2603352;54;20728;31
2022/04/11 03:30:53;;;;;;;;;;;2.20;99.90;;;;;;2603204;54;20748;31
2022/04/11 03:33:32;;;;;;;;;;;2.20;99.90;;;;;;2603149;54;20745;31
2022/04/11 03:36:08;;;;;;;;;;;2.20;99.90;;;;;;2603063;54;20071;31
2022/04/11 03:38:50;;;;;;;;;;;2.30;99.90;;;;;;2603369;54;20744;31
2022/04/11 03:41:29;;;;;;;;;;;2.30;99.90;;;;;;2602391;54;20783;31
2022/04/11 03:44:18;;;;;;;;;;;2.30;99.90;;;;;;2621682;46;19938;31
2022/04/11 03:46:55;;;;;;;;;;;2.30;99.90;;;;;;2603136;54;20755;31
2022/04/11 03:49:34;;;;;;;;;;;2.30;99.90;;;;;;2603066;54;19976;31
2022/04/11 03:52:19;;;;;;;;;;;2.30;99.90;;;;;;2621747;46;20723;31
2022/04/11 03:54:55;;;;;;;;;;;2.30;99.90;;;;;;2606817;46;20757;31
2022/04/11 03:57:34;;;;;;;;;;;2.30;99.90;;;;;;2603293;54;19938;31
2022/04/11 04:00:16;;;;;;;;;;;2.40;99.90;;;;;;2602548;54;20025;31
2022/04/11 04:03:09;;;;;;;;;;;2.30;99.90;;;;;;2603010;54;20679;31
2022/04/11 04:05:53;;;;;;;;;;;2.40;99.90;;;;;;2791528;31;20449;31
2022/04/11 04:08:31;;;;;;;;;;;2.40;99.90;;;;;;2602248;54;20513;31
2022/04/11 04:11:13;;;;;;;;;;;2.40;99.90;;;;;;2602437;54;20811;31
2022/04/11 04:13:53;;;;;;;;;;;2.50;99.90;;;;;;2614354;46;19949;31
2022/04/11 04:16:34;;;;;;;;;;;2.50;99.90;;;;;;2602291;54;20779;31
2022/04/11 04:19:13;;;;;;;;;;;2.50;99.90;;;;;;2603134;54;20861;31
2022/04/11 04:21:49;;;;;;;;;;;2.50;99.90;;;;;;2621572;46;19946;31
2022/04/11 04:24:24;;;;;;;;;;;2.50;99.90;;;;;;2602222;54;19942;31
2022/04/11 04:27:07;;;;;;;;;;;2.50;99.90;;;;;;2603051;54;20760;31
2022/04/11 04:29:48;;;;;;;;;;;2.50;99.90;;;;;;2602426;54;20756;31
2022/04/11 04:32:26;;;;;;;;;;;2.50;99.90;;;;;;2602251;54;19998;31
2022/04/11 04:35:00;;;;;;;;;;;2.50;99.90;;;;;;2603064;54;20749;31
2022/04/11 04:37:36;;;;;;;;;;;2.50;99.90;;;;;;2603045;54;20778;31
2022/04/11 04:40:12;;;;;;;;;;;2.50;99.90;;;;;;2602201;54;19981;31
2022/04/11 04:42:53;;;;;;;;;;;2.50;99.90;;;;;;2602963;54;19957;31
2022/04/11 04:45:28;;;;;;;;;;;2.50;99.90;;;;;;2602856;54;20745;31
2022/04/11 04:48:36;;;;;;;;;;;2.60;99.90;;;;;;2602953;54;19934;31
2022/04/11 04:51:15;;;;;;;;;;;2.60;99.90;;;;;;2602237;54;19934;31
2022/04/11 04:53:56;;;;;;;;;;;2.70;99.90;;;;;;2620940;46;20465;31
2022/04/11 04:56:33;;;;;;;;;;;2.70;99.90;;;;;;2602294;54;20655;31
2022/04/11 04:59:13;;;;;;;;;;;2.80;99.90;;;;;;2602103;54;20473;31
2022/04/11 05:01:49;;;;;;;;;;;2.80;99.90;;;;;;2603043;54;19935;31
2022/04/11 05:04:31;;;;;;;;;;;2.90;99.90;;;;;;2602790;54;20508;31
2022/04/11 05:07:07;;;;;;;;;;;2.90;99.90;;;;;;2602854;54;19934;31
2022/04/11 05:09:47;;;;;;;;;;;3.10;99.90;;;;;;2621503;46;20658;31
2022/04/11 05:12:25;;;;;;;;;;;3.10;99.90;;;;;;2602808;54;20783;31
2022/04/11 05:14:59;;;;;;;;;;;3.20;99.90;;;;;;2621531;46;19998;31
2022/04/11 05:17:35;;;;;;;;;;;3.30;99.90;;;;;;2602223;54;19947;31
2022/04/11 05:20:13;;;;;;;;;;;3.30;99.90;;;;;;2602981;54;19935;31
2022/04/11 05:22:49;;;;;;;;;;;3.40;99.90;;;;;;2612259;46;19943;31
2022/04/11 05:25:26;;;;;;;;;;;3.40;99.90;;;;;;2602994;54;19934;31
2022/04/11 05:28:01;;;;;;;;;;;3.50;99.90;;;;;;2601971;54;20733;31
2022/04/11 05:30:39;;;;;;;;;;;3.50;99.90;;;;;;2602970;54;20013;31
2022/04/11 05:33:16;;;;;;;;;;;3.60;99.90;;;;;;2700558;39;20396;31
2022/04/11 05:35:53;;;;;;;;;;;3.60;99.90;;;;;;2621253;47;21345;31
2022/04/11 05:38:31;;;;;;;;;;;3.70;99.90;;;;;;2621457;47;19934;31
2022/04/11 05:41:11;;;;;;;;;;;3.70;99.90;;;;;;2603158;54;19935;31
2022/04/11 05:43:54;;;;;;;;;;;3.80;99.90;;;;;;2621215;47;19946;31
2022/04/11 05:46:36;;;;;;;;;;;3.80;99.90;;;;;;2618644;47;21331;31
2022/04/11 05:49:22;;;;;;;;;;;4.10;99.90;;;;;;2602051;54;19950;31
2022/04/11 05:52:00;;;;;;;;;;;4.20;99.90;;;;;;2621479;47;20033;31
2022/04/11 05:54:41;;;;;;;;;;;4.30;99.90;;;;;;2603719;54;20739;31
2022/04/11 05:57:19;;;;;;;;;;;4.30;99.90;;;;;;2621519;46;20010;31
2022/04/11 05:59:55;;;;;;;;;;;4.30;99.90;;;;;;2603396;54;21367;31
2022/04/11 06:02:32;;;;;;;;;;;4.40;99.90;;;;;;2792299;31;20449;31
2022/04/11 06:05:07;;;;;;;;;;;4.40;99.90;;;;;;2603575;54;20795;31
2022/04/11 06:07:45;;;;;;;;;;;4.50;99.90;;;;;;2622138;46;20528;31
2022/04/11 06:10:23;;;;;;;;;;;4.50;99.90;;;;;;2622092;46;20006;31
2022/04/11 06:12:57;;;;;;;;;;;4.60;99.90;;;;;;2603383;54;19941;31
2022/04/11 06:15:32;;;;;;;;;;;4.70;99.90;;;;;;2603592;54;20848;31
2022/04/11 06:18:08;;;;;;;;;;;4.80;99.90;;;;;;2702175;39;20411;31
2022/04/11 06:20:47;;;;;;;;;;;4.90;99.90;;;;;;2603589;54;19961;31
2022/04/11 06:23:22;;;;;;;;;;;5.00;99.90;;;;;;2603143;54;19934;31
2022/04/11 06:26:00;;;;;;;;;;;5.20;99.90;;;;;;2772600;31;21359;31
2022/04/11 06:28:41;;;;;;;;;;;5.30;99.90;;;;;;2603466;54;20734;31
2022/04/11 06:31:17;;;;;;;;;;;5.40;99.90;;;;;;2603472;54;19960;31
2022/04/11 06:33:58;;;;;;;;;;;5.50;99.90;;;;;;2603412;54;19946;31
2022/04/11 06:36:37;;;;;;;;;;;5.60;99.90;;;;;;2603449;54;20016;31
2022/04/11 06:39:11;;;;;;;;;;;5.90;99.90;;;;;;2603306;54;19935;31
2022/04/11 06:41:53;;;;;;;;;;;6.40;99.90;;;;;;2603318;54;20758;31
2022/04/11 06:44:32;;;;;;;;;;;7.00;99.90;;;;;;2621911;46;20762;31
2022/04/11 06:47:21;;;;;;;;;;;7.50;99.90;;;;;;2603471;54;19961;31
2022/04/11 06:49:56;;;;;;;;;;;7.90;99.90;;;;;;2603162;54;20753;31
2022/04/11 06:52:32;;;;;;;;;;;7.90;99.90;;;;;;2603214;54;19935;31
2022/04/11 06:55:07;;;;;;;;;;;8.20;99.90;;;;;;2621840;46;19943;31
2022/04/11 06:57:44;;;;;;;;;;;8.40;99.90;;;;;;2621477;46;19941;31
2022/04/11 07:00:22;;;;;;;;;;;8.70;99.90;;;;;;2621880;46;19934;31
2022/04/11 07:02:58;;;;;;;;;;;9.00;99.90;;;;;;2603121;54;19941;31
2022/04/11 07:05:33;;;;;;;;;;;9.40;99.90;;;;;;2621256;47;19941;31
2022/04/11 07:08:08;;;;;;;;;;;9.40;99.90;;;;;;2603035;54;19935;31
2022/04/11 07:10:45;;;;;;;;;;;9.50;99.90;;;;;;2621888;46;20662;31
2022/04/11 07:13:20;;;;;;;;;;;9.90;99.90;;;;;;2621593;46;19989;31
2022/04/11 07:15:58;;;;;;;;;;;10.30;99.90;;;;;;2603295;54;20009;31
2022/04/11 07:18:35;;;;;;;;;;;10.60;99.90;;;;;;2602870;54;19941;31
2022/04/11 07:21:12;;;;;;;;;;;10.80;99.90;;;;;;2621473;46;19941;31
2022/04/11 07:23:47;;;;;;;;;;;11.10;99.90;;;;;;2621780;46;20757;31
2022/04/11 07:26:24;;;;;;;;;;;11.50;99.90;;;;;;2603043;54;20713;31
2022/04/11 07:28:58;;;;;;;;;;;11.80;99.90;;;;;;2602943;54;19934;31
2022/04/11 07:31:36;;;;;;;;;;;12.00;99.90;;;;;;2602795;54;19935;31
2022/04/11 07:34:12;;;;;;;;;;;12.30;99.90;;;;;;2621729;46;20784;31
2022/04/11 07:36:49;;;;;;;;;;;12.40;99.90;;;;;;2621192;46;19941;31
2022/04/11 07:39:28;;;;;;;;;;;12.80;99.90;;;;;;2613053;46;19965;31
2022/04/11 07:42:03;;;;;;;;;;;13.10;99.90;;;;;;2622035;46;20753;31
2022/04/11 07:44:36;;;;;;;;;;;13.00;99.90;;;;;;2603151;54;22064;31
2022/04/11 07:47:13;;;;;;;;;;;13.10;99.90;;;;;;2603161;54;19935;31
2022/04/11 07:49:51;;;;;;;;;;;13.40;99.90;;;;;;2603160;54;19994;31
2022/04/11 07:52:26;;;;;;;;;;;13.60;99.90;;;;;;2621743;46;20761;31
2022/04/11 07:55:00;;;;;;;;;;;13.80;99.90;;;;;;2603011;54;19950;31
2022/04/11 07:57:37;;;;;;;;;;;13.90;99.90;;;;;;2621849;46;21444;31
2022/04/11 08:00:31;;;;;;;;;;;13.80;99.90;;;;;;2621754;46;20788;31
2022/04/11 08:03:07;;;;;;;;;;;14.00;99.90;;;;;;2603377;54;20685;31
2022/04/11 08:05:46;;;;;;;;;;;14.00;99.90;;;;;;2621894;46;19938;31
2022/04/11 08:08:23;;;;;;;;;;;14.10;99.90;;;;;;2603378;54;20746;31
2022/04/11 08:10:59;;;;;;;;;;;14.40;99.90;;;;;;2621497;46;19934;31
2022/04/11 08:13:38;;;;;;;;;;;14.60;99.90;;;;;;2603180;54;19934;31
2022/04/11 08:16:16;;;;;;;;;;;14.90;99.90;;;;;;2602242;54;19994;31
2022/04/11 08:18:54;;;;;;;;;;;14.80;99.90;;;;;;2602457;54;19984;31
2022/04/11 08:21:33;;;;;;;;;;;14.30;99.90;;;;;;2603238;54;20769;31
2022/04/11 08:24:10;;;;;;;;;;;14.30;99.90;;;;;;2602996;54;20001;31
2022/04/11 08:26:45;;;;;;;;;;;14.40;99.90;;;;;;2621966;46;20631;31
2022/04/11 08:29:21;;;;;;;;;;;14.50;99.90;;;;;;2603081;54;19935;31
2022/04/11 08:31:56;;;;;;;;;;;14.50;99.70;;;;;;2622074;46;20029;31
2022/04/11 08:34:32;;;;;;;;;;;14.40;99.70;;;;;;2603342;54;19941;31
2022/04/11 08:37:14;;;;;;;;;;;14.10;99.70;;;;;;2615501;46;19948;31
2022/04/11 08:39:49;;;;;;;;;;;13.90;99.70;;;;;;2603038;54;19962;31
2022/04/11 08:42:25;;;;;;;;;;;13.50;99.30;;;;;;2603119;54;20763;31
2022/04/11 08:45:02;;;;;;;;;;;13.10;99.20;;;;;;2617593;46;20753;31
2022/04/11 08:47:36;;;;;;;;;;;12.80;99.90;;;;;;2619211;46;20747;31
2022/04/11 08:50:14;;;;;;;;;;;12.60;99.90;;;;;;2602316;54;20002;31
2022/04/11 08:52:53;;;;;;;;;;;12.70;99.90;;;;;;2602943;54;19946;31
2022/04/11 08:55:29;;;;;;;;;;;12.50;99.90;;;;;;2602921;54;19934;31
2022/04/11 08:58:06;;;;;;;;;;;12.30;99.90;;;;;;2602967;54;19935;31
2022/04/11 09:00:43;;;;;;;;;;;12.30;99.90;;;;;;2603043;54;20788;31
2022/04/11 09:03:18;;;;;;;;;;;12.10;99.90;;;;;;2602714;54;20662;31
2022/04/11 09:05:55;;;;;;;;;;;11.90;99.90;;;;;;2602948;54;20674;31
2022/04/11 09:08:44;;;;;;;;;;;11.80;99.90;;;;;;2602839;54;19942;31
2022/04/11 09:11:29;;;;;;;;;;;11.70;99.90;;;;;;2602477;54;19935;31
2022/04/11 09:14:06;;;;;;;;;;;11.60;99.90;;;;;;2621621;46;20702;31
2022/04/11 09:16:47;;;;;;;;;;;11.50;99.90;;;;;;2602858;54;19957;31
2022/04/11 09:19:24;;;;;;;;;;;11.40;99.80;;;;;;2602593;54;20772;31
2022/04/11 09:22:31;;;;;;;;;;;11.30;99.90;;;;;;2621461;46;19966;31
2022/04/11 09:25:07;;;;;;;;;;;11.20;99.60;;;;;;2621436;46;19935;31
2022/04/11 09:27:45;;;;;;;;;;;11.10;99.50;;;;;;2602396;54;19951;31
2022/04/11 09:30:23;;;;;;;;;;;11.00;99.00;;;;;;2601988;54;20650;31
2022/04/11 09:33:07;;;;;;;;;;;11.10;98.70;;;;;;2613393;47;20013;31
2022/04/11 09:35:42;;;;;;;;;;;11.00;98.90;;;;;;2602422;54;19935;31
2022/04/11 09:38:18;;;;;;;;;;;11.20;98.10;;;;;;2602550;54;19935;31
2022/04/11 09:40:55;;;;;;;;;;;11.60;99.30;;;;;;2621258;47;20021;31
2022/04/11 09:43:33;;;;;;;;;;;12.10;97.70;;;;;;2620999;47;21046;31
2022/04/11 09:46:10;;;;;;;;;;;12.30;95.20;;;;;;2602706;54;20755;31
2022/04/11 09:48:48;;;;;;;;;;;12.30;95.50;;;;;;2602643;54;19935;31
2022/04/11 09:51:23;;;;;;;;;;;12.40;96.80;;;;;;2620896;47;19934;31
2022/04/11 09:53:56;;;;;;;;;;;12.50;95.30;;;;;;2602845;54;21060;31
2022/04/11 09:56:31;;;;;;;;;;;12.30;93.50;;;;;;2601915;54;19955;31
2022/04/11 09:59:06;;;;;;;;;;;12.50;94.20;;;;;;2602468;54;19935;31
2022/04/11 10:01:44;;;;;;;;;;;12.80;95.80;;;;;;2609468;47;20747;31
2022/04/11 10:04:23;;;;;;;;;;;12.90;96.00;;;;;;2620907;47;20811;31
2022/04/11 10:06:59;;;;;;;;;;;12.80;95.10;;;;;;2602446;54;19950;31
2022/04/11 10:09:36;;;;;;;;;;;12.70;95.80;;;;;;2621174;47;20654;31
2022/04/11 10:12:13;;;;;;;;;;;12.50;95.60;;;;;;2701508;39;20513;31
2022/04/11 10:14:50;;;;;;;;;;;12.80;96.10;;;;;;2620813;47;20029;31
2022/04/11 10:17:34;;;;;;;;;;;12.80;96.10;;;;;;2621276;47;20830;31
2022/04/11 10:20:15;;;;;;;;;;;12.70;94.90;;;;;;2602425;54;20014;31
2022/04/11 10:22:53;;;;;;;;;;;12.60;94.80;;;;;;2602460;54;19938;31
2022/04/11 10:25:33;;;;;;;;;;;12.40;95.00;;;;;;2602578;54;20115;31
2022/04/11 10:28:16;;;;;;;;;;;12.20;95.10;;;;;;2602578;54;20570;31
2022/04/11 10:30:53;;;;;;;;;;;12.40;96.50;;;;;;2602572;54;20651;31
2022/04/11 10:33:47;;;;;;;;;;;12.80;96.20;;;;;;2602525;54;19990;31
2022/04/11 10:36:45;;;;;;;;;;;13.30;95.40;;;;;;2620934;47;20784;31
2022/04/11 10:39:29;;;;;;;;;;;13.70;96.00;;;;;;2603179;54;20807;31
2022/04/11 10:42:14;;;;;;;;;;;13.90;94.30;;;;;;2603535;54;20000;31
2022/04/11 10:44:50;;;;;;;;;;;14.00;93.00;;;;;;2622139;46;20454;31
2022/04/11 10:47:30;;;;;;;;;;;14.20;93.40;;;;;;2603470;54;19954;31
2022/04/11 10:50:27;;;;;;;;;;;14.10;92.10;;;;;;2720555;39;20389;31
2022/04/11 10:55:37;;;;;;;;;;;14.00;92.30;;;;;;2603271;54;20489;31
2022/04/11 10:58:16;;;;;;;;;;;13.70;91.40;;;;;;2603448;54;19934;31
2022/04/11 11:00:52;;;;;;;;;;;13.40;92.70;;;;;;2603582;54;19935;31
2022/04/11 11:03:27;;;;;;;;;;;13.50;94.20;;;;;;2773456;31;20433;31
2022/04/11 11:06:21;;;;;;;;;;;13.70;93.90;;;;;;2621673;46;22238;31
2022/04/11 11:08:57;;;;;;;;;;;13.60;93.30;;;;;;2603519;54;20682;31
2022/04/11 11:11:32;;;;;;;;;;;13.50;93.10;;;;;;2603170;54;19941;31
2022/04/11 11:14:14;;;;;;;;;;;13.30;93.70;;;;;;2603375;54;20747;31
2022/04/11 11:17:01;;;;;;;;;;;13.20;95.00;;;;;;2604283;46;19941;31
2022/04/11 11:19:39;;;;;;;;;;;12.90;93.50;;;;;;2603170;54;20680;31
2022/04/11 11:22:16;;;;;;;;;;;12.70;94.80;;;;;;2603425;54;20731;31
2022/04/11 11:25:05;;;;;;;;;;;12.50;94.30;;;;;;2603260;54;20753;31
2022/04/11 11:27:44;;;;;;;;;;;12.40;93.30;;;;;;2621857;46;19934;31
2022/04/11 11:30:25;;;;;;;;;;;12.20;92.50;;;;;;2603265;54;19963;31
2022/04/11 11:33:02;;;;;;;;;;;12.30;93.60;;;;;;2603270;54;20710;31
2022/04/11 11:35:37;;;;;;;;;;;12.20;93.80;;;;;;2603111;54;20666;31
2022/04/11 11:38:14;;;;;;;;;;;12.20;94.40;;;;;;2603376;54;20743;31
2022/04/11 11:40:58;;;;;;;;;;;12.30;94.90;;;;;;2621721;46;20025;31
2022/04/11 11:43:36;;;;;;;;;;;12.60;93.70;;;;;;2603169;54;19941;31
2022/04/11 11:46:14;;;;;;;;;;;12.70;93.80;;;;;;2603101;54;20520;31
2022/04/11 11:48:49;;;;;;;;;;;12.80;92.00;;;;;;2602473;54;20737;31
2022/04/11 11:51:23;;;;;;;;;;;12.80;92.00;;;;;;2719137;39;20398;31
2022/04/11 11:53:58;;;;;;;;;;;12.70;92.10;;;;;;2700778;39;20417;31
2022/04/11 11:56:44;;;;;;;;;;;12.50;92.60;;;;;;2621406;46;19938;31
2022/04/11 11:59:22;;;;;;;;;;;12.10;93.90;;;;;;2720051;39;20441;31
2022/04/11 12:04:52;;;;;;;;;;;11.60;97.20;;;;;;2621823;46;19998;31
2022/04/11 12:07:33;;;;;;;;;;;11.40;97.30;;;;;;2621817;46;19935;31
2022/04/11 12:10:10;;;;;;;;;;;11.10;99.50;;;;;;2602846;54;20709;31
2022/04/11 12:12:49;;;;;;;;;;;10.90;99.90;;;;;;2621494;46;20674;31
2022/04/11 12:15:24;;;;;;;;;;;10.80;99.90;;;;;;2621177;46;20781;31
2022/04/11 12:18:01;;;;;;;;;;;10.70;99.90;;;;;;2602841;54;19934;31
2022/04/11 12:20:40;;;;;;;;;;;10.70;99.90;;;;;;2602218;54;20687;31
2022/04/11 12:23:16;;;;;;;;;;;10.80;99.90;;;;;;2700561;39;21385;31
2022/04/11 12:25:54;;;;;;;;;;;10.90;99.90;;;;;;2701300;39;20436;31
2022/04/11 12:28:30;;;;;;;;;;;11.10;99.90;;;;;;2602723;54;19941;31
2022/04/11 12:31:13;;;;;;;;;;;11.30;99.70;;;;;;2603046;54;20746;31
2022/04/11 12:33:49;;;;;;;;;;;11.50;99.90;;;;;;2621603;46;20654;31
2022/04/11 12:36:30;;;;;;;;;;;11.60;98.50;;;;;;2602072;54;20267;31
2022/04/11 12:39:13;;;;;;;;;;;11.70;99.10;;;;;;2603126;54;20046;31
2022/04/11 12:41:50;;;;;;;;;;;11.70;97.80;;;;;;2603151;54;19935;31
2022/04/11 12:44:35;;;;;;;;;;;11.70;98.00;;;;;;2621340;46;19934;31
2022/04/11 12:47:11;;;;;;;;;;;11.90;97.20;;;;;;2603101;54;19972;31
2022/04/11 12:49:47;;;;;;;;;;;12.00;97.30;;;;;;2621360;46;20489;31
2022/04/11 12:52:25;;;;;;;;;;;12.00;96.70;;;;;;2602994;54;19935;31
2022/04/11 12:55:03;;;;;;;;;;;12.10;96.20;;;;;;2602729;54;19941;31
2022/04/11 12:57:38;;;;;;;;;;;12.10;96.00;;;;;;2602871;54;20787;31
2022/04/11 13:00:17;;;;;;;;;;;12.10;96.20;;;;;;2602967;54;19934;31
2022/04/11 13:02:52;;;;;;;;;;;12.20;94.40;;;;;;2620902;46;20686;31
2022/04/11 13:05:27;;;;;;;;;;;12.10;93.70;;;;;;2620845;46;20631;31
2022/04/11 13:08:11;;;;;;;;;;;12.20;94.80;;;;;;2602116;54;19946;31
2022/04/11 13:10:49;;;;;;;;;;;12.30;93.90;;;;;;2602324;54;20680;31
2022/04/11 13:13:27;;;;;;;;;;;12.30;93.30;;;;;;2602605;54;19941;31
2022/04/11 13:18:57;;;;;;;;;;;12.20;92.90;;;;;;2602688;54;19934;31
2022/04/11 13:21:33;;;;;;;;;;;12.10;93.80;;;;;;2602802;54;21157;31
2022/04/11 13:24:12;;;;;;;;;;;12.00;93.70;;;;;;2620967;46;19938;31
2022/04/11 13:26:49;;;;;;;;;;;11.90;93.70;;;;;;2602023;54;21442;31
2022/04/11 13:29:29;;;;;;;;;;;11.80;93.90;;;;;;2701450;39;20409;31
2022/04/11 13:32:04;;;;;;;;;;;11.70;95.30;;;;;;2602975;54;19941;31
2022/04/11 13:34:38;;;;;;;;;;;11.80;95.50;;;;;;2602784;54;20750;31
2022/04/11 13:37:13;;;;;;;;;;;11.90;95.70;;;;;;2621081;47;19950;31
2022/04/11 13:39:59;;;;;;;;;;;12.00;94.90;;;;;;2602481;54;19934;31
2022/04/11 13:42:35;;;;;;;;;;;12.00;94.80;;;;;;2602606;54;19962;31
2022/04/11 13:45:32;;;;;;;;;;;12.10;95.30;;;;;;2621179;47;19962;31
2022/04/11 13:48:09;;;;;;;;;;;12.20;93.80;;;;;;2602908;54;20780;31
2022/04/11 13:50:46;;;;;;;;;;;12.20;94.50;;;;;;2601873;54;19980;31
2022/04/11 13:53:24;;;;;;;;;;;12.10;94.10;;;;;;2771971;31;21430;31
2022/04/11 13:56:02;;;;;;;;;;;12.00;93.60;;;;;;2614394;47;19942;31
2022/04/11 13:58:36;;;;;;;;;;;11.90;94.30;;;;;;2621288;47;20759;31
2022/04/11 14:01:13;;;;;;;;;;;12.00;94.80;;;;;;2602528;54;19935;31
2022/04/11 14:03:52;;;;;;;;;;;12.10;95.70;;;;;;2621410;47;20759;31
2022/04/11 14:06:27;;;;;;;;;;;12.00;94.40;;;;;;2621143;47;20796;31
2022/04/11 14:09:04;;;;;;;;;;;12.00;94.10;;;;;;2602619;54;21322;31
2022/04/11 14:11:59;;;;;;;;;;;12.00;94.00;;;;;;2621263;47;19965;31
2022/04/11 14:14:36;;;;;;;;;;;11.90;94.30;;;;;;2603532;54;20013;31
2022/04/11 14:17:13;;;;;;;;;;;11.90;93.90;;;;;;2603480;54;19935;31
2022/04/11 14:19:51;;;;;;;;;;;11.80;93.50;;;;;;2621196;46;20755;31
2022/04/11 14:22:26;;;;;;;;;;;11.80;93.10;;;;;;2603500;54;19934;31
2022/04/11 14:25:03;;;;;;;;;;;11.70;93.30;;;;;;2701997;39;20421;31
2022/04/11 14:28:01;;;;;;;;;;;11.70;93.10;;;;;;2603492;54;20725;31
2022/04/11 14:30:48;;;;;;;;;;;11.70;92.90;;;;;;2622184;46;19978;31
2022/04/11 14:33:23;;;;;;;;;;;11.60;92.30;;;;;;2603489;54;19930;31
2022/04/11 14:36:02;;;;;;;;;;;11.60;92.80;;;;;;2603289;54;19961;31
2022/04/11 14:38:41;;;;;;;;;;;11.70;92.30;;;;;;2621966;46;20836;31
2022/04/11 14:41:16;;;;;;;;;;;11.70;92.70;;;;;;2610227;46;19943;31
2022/04/11 14:43:51;;;;;;;;;;;11.80;93.10;;;;;;2619702;46;19942;31
2022/04/11 14:46:29;;;;;;;;;;;11.80;91.50;;;;;;2602156;54;20681;31
2022/04/11 14:49:04;;;;;;;;;;;11.80;92.00;;;;;;2617724;46;19946;31
2022/04/11 14:52:02;;;;;;;;;;;11.70;92.60;;;;;;2603188;54;19934;31
2022/04/11 14:54:38;;;;;;;;;;;11.70;92.00;;;;;;2603264;54;20751;31
2022/04/11 14:57:14;;;;;;;;;;;11.60;92.10;;;;;;2602656;54;20493;31
2022/04/11 14:59:49;;;;;;;;;;;11.60;92.00;;;;;;2621668;46;19957;31
2022/04/11 15:02:24;;;;;;;;;;;11.50;92.50;;;;;;2603094;54;19935;31
2022/04/11 15:04:58;;;;;;;;;;;11.30;92.30;;;;;;2621075;46;19962;31
2022/04/11 15:07:37;;;;;;;;;;;11.30;92.40;;;;;;2614641;46;19946;31
2022/04/11 15:10:17;;;;;;;;;;;11.20;91.20;;;;;;2602537;54;19935;31
2022/04/11 15:12:55;;;;;;;;;;;11.20;92.80;;;;;;2701716;39;20416;31
2022/04/11 15:15:30;;;;;;;;;;;11.10;91.70;;;;;;2602876;54;19935;31
2022/04/11 15:18:07;;;;;;;;;;;11.20;92.40;;;;;;2603110;54;19939;31
2022/04/11 15:20:40;;;;;;;;;;;11.10;92.50;;;;;;2602639;54;21791;31
2022/04/11 15:23:15;;;;;;;;;;;11.10;91.70;;;;;;2620826;46;19942;31
2022/04/11 15:25:54;;;;;;;;;;;11.10;91.90;;;;;;2602015;54;19942;31
2022/04/11 15:28:35;;;;;;;;;;;11.10;91.50;;;;;;2603056;54;19943;31
2022/04/11 15:31:13;;;;;;;;;;;11.10;92.10;;;;;;2608339;46;20822;31
2022/04/11 15:33:48;;;;;;;;;;;11.20;93.10;;;;;;2603337;54;19942;31
2022/04/11 15:36:24;;;;;;;;;;;11.20;91.50;;;;;;2621701;46;20640;31
2022/04/11 15:39:00;;;;;;;;;;;11.10;91.90;;;;;;2603200;54;20657;31
2022/04/11 15:41:34;;;;;;;;;;;11.10;92.10;;;;;;2603025;54;21817;31
2022/04/11 15:44:11;;;;;;;;;;;11.10;92.20;;;;;;2603361;54;19934;31
2022/04/11 15:46:46;;;;;;;;;;;11.10;91.90;;;;;;2614195;46;19935;31
2022/04/11 15:49:21;;;;;;;;;;;10.70;91.50;;;;;;2602243;54;21374;31
2022/04/11 15:51:58;;;;;;;;;;;11.00;91.60;;;;;;2620611;46;20701;31